createdAt,value
2023-01-13T00:03:48.535Z,40.78052
2023-01-13T00:08:49.509Z,40.71635
2023-01-13T00:13:50.482Z,40.70467
2023-01-13T00:18:51.475Z,40.58799
2023-01-13T00:23:52.463Z,40.50048
2023-01-13T00:28:53.426Z,40.48881
2023-01-13T00:33:54.405Z,40.44796
2023-01-13T00:38:55.367Z,40.30788
2023-01-13T00:43:56.341Z,40.17947
2023-01-13T00:48:57.315Z,40.05687
2023-01-13T00:53:58.261Z,40.02183
2023-01-13T00:58:59.228Z,39.86426
2023-01-13T01:04:00.255Z,39.84082
2023-01-13T01:09:01.317Z,39.70069
2023-01-13T01:14:02.394Z,39.64807
2023-01-13T01:19:03.392Z,39.51359
2023-01-13T01:24:04.458Z,39.34432
2023-01-13T01:29:05.392Z,39.44949
2023-01-13T01:34:06.376Z,39.28001
2023-01-13T01:39:07.335Z,39.14572
2023-01-13T01:44:08.332Z,39.15707
2023-01-13T01:49:09.408Z,38.95846
2023-01-13T01:54:10.352Z,38.83559
2023-01-13T01:59:11.339Z,38.64288
2023-01-13T02:04:12.332Z,38.59599
2023-01-13T02:09:13.322Z,38.44979
2023-01-13T02:14:14.279Z,38.36237
2023-01-13T02:19:15.222Z,38.29765
2023-01-13T02:24:16.231Z,38.19839
2023-01-13T02:29:17.182Z,38.175
2023-01-13T02:34:18.171Z,38.0696
2023-01-13T02:39:19.201Z,38.04074
2023-01-13T02:44:20.255Z,38.06422
2023-01-13T02:49:21.214Z,38.01122
2023-01-13T02:54:22.181Z,37.89399
2023-01-13T02:59:23.109Z,37.73001
2023-01-13T03:04:24.074Z,37.79427
2023-01-13T03:09:25.137Z,37.58973
2023-01-13T03:14:26.045Z,37.54313
2023-01-13T03:19:27.078Z,37.4559
2023-01-13T03:24:28.060Z,37.54434
2023-01-13T03:29:28.984Z,37.62612
2023-01-13T03:34:31.220Z,37.57331
2023-01-13T03:39:32.272Z,37.54995
2023-01-13T03:44:33.323Z,37.47993
2023-01-13T03:49:34.261Z,37.42725
2023-01-13T03:54:35.252Z,37.34529
2023-01-13T03:59:36.270Z,37.36316
2023-01-13T04:04:37.268Z,37.25172
2023-01-13T04:09:38.182Z,37.16987
2023-01-13T04:14:39.406Z,37.2167
2023-01-13T04:19:40.645Z,37.22885
2023-01-13T04:24:41.631Z,37.2052
2023-01-13T04:29:42.599Z,37.10557
2023-01-13T04:34:43.579Z,37.08798
2023-01-13T04:39:44.517Z,37.05932
2023-01-13T04:44:45.412Z,37.13027
2023-01-13T04:49:46.356Z,37.18897
2023-01-13T04:54:47.307Z,37.21805
2023-01-13T04:59:48.240Z,37.22324
2023-01-13T05:04:49.234Z,37.12961
2023-01-13T05:09:50.186Z,37.0356
2023-01-13T05:14:51.090Z,37.08275
2023-01-13T05:19:52.048Z,36.99959
2023-01-13T05:24:53.036Z,36.85266
2023-01-13T05:29:53.981Z,36.71676
2023-01-13T05:34:55.000Z,36.64645
2023-01-13T05:39:55.942Z,36.53504
2023-01-13T05:44:56.924Z,36.59958
2023-01-13T05:49:57.885Z,36.50047
2023-01-13T05:54:58.823Z,36.54163
2023-01-13T05:59:59.765Z,36.53022
2023-01-13T06:05:00.707Z,36.61221
2023-01-13T06:10:01.651Z,36.6179
2023-01-13T06:15:02.682Z,36.53614
2023-01-13T06:20:03.619Z,36.58296
2023-01-13T06:25:04.591Z,36.63637
2023-01-13T06:30:05.555Z,36.6835
2023-01-13T06:35:06.460Z,36.85298
2023-01-13T06:40:07.417Z,36.95213
2023-01-13T06:45:08.368Z,37.04539
2023-01-13T06:50:09.284Z,37.00971
2023-01-13T06:55:10.269Z,37.03866
2023-01-13T07:00:11.260Z,36.94461
2023-01-13T07:05:12.180Z,36.92105
2023-01-13T07:10:13.173Z,36.90423
2023-01-13T07:15:14.062Z,36.92161
2023-01-13T07:20:15.087Z,36.80513
2023-01-13T07:25:16.265Z,36.65846
2023-01-13T07:30:17.886Z,36.45916
2023-01-13T07:35:18.882Z,36.02084
2023-01-13T07:40:19.872Z,35.65198
2023-01-13T07:45:20.921Z,35.10213
2023-01-13T07:50:21.881Z,35.07885
2023-01-13T07:55:23.032Z,34.78121
2023-01-13T08:00:23.998Z,34.76457
2023-01-13T08:05:24.937Z,34.9058
2023-01-13T08:10:25.915Z,34.95926
2023-01-13T08:15:26.866Z,35.07632
2023-01-13T08:20:27.912Z,35.11021
2023-01-13T08:25:28.811Z,35.19221
2023-01-13T08:30:29.928Z,35.40267
2023-01-13T08:35:30.950Z,35.56087
2023-01-13T08:40:31.892Z,35.61822
2023-01-13T08:45:32.879Z,35.5996
2023-01-13T08:50:33.883Z,35.60488
2023-01-13T08:55:34.806Z,35.65778
2023-01-13T09:00:35.808Z,35.80529
2023-01-13T09:05:36.731Z,35.83526
2023-01-13T09:10:37.688Z,35.95841
2023-01-13T09:15:38.712Z,35.90691
2023-01-13T09:20:39.968Z,35.90644
2023-01-13T09:25:41.035Z,35.89473
2023-01-13T09:30:41.975Z,35.90668
2023-01-13T09:35:42.896Z,35.91863
2023-01-13T09:40:44.068Z,35.50712
2023-01-13T09:45:45.139Z,35.21688
2023-01-13T09:50:46.092Z,35.18176
2023-01-13T09:55:47.036Z,35.14671
2023-01-13T10:00:47.986Z,35.00538
2023-01-13T10:05:48.970Z,34.77766
2023-01-13T10:10:49.935Z,35.04447
2023-01-13T10:15:50.936Z,34.98737
2023-01-13T10:20:51.896Z,34.85303
2023-01-13T10:25:52.960Z,34.52277
2023-01-13T10:30:53.922Z,34.2821
2023-01-13T10:35:54.842Z,34.30136
2023-01-13T10:40:55.802Z,34.2084
2023-01-13T10:45:56.787Z,33.97461
2023-01-13T10:50:57.766Z,33.64359
2023-01-13T10:55:58.720Z,33.35518
2023-01-13T11:01:04.843Z,33.2785
2023-01-13T11:06:05.770Z,32.23162
2023-01-13T11:11:06.687Z,29.93707
2023-01-13T11:16:07.654Z,29.60117
2023-01-13T11:21:08.587Z,29.23394
2023-01-13T11:26:09.531Z,29.28899
2023-01-13T11:31:10.563Z,26.98259
2023-01-13T11:36:11.575Z,25.43855
2023-01-13T11:41:12.532Z,24.40533
2023-01-13T11:46:13.459Z,24.51626
2023-01-13T11:51:14.428Z,24.0844
2023-01-13T11:56:15.366Z,23.99925
2023-01-13T12:01:16.370Z,23.01121
2023-01-13T12:06:17.290Z,20.56089
2023-01-13T12:11:18.251Z,18.80413
2023-01-13T12:16:19.282Z,21.27945
2023-01-13T12:21:20.249Z,22.0526
2023-01-13T12:26:21.163Z,20.87782
2023-01-13T12:31:22.370Z,19.86379
2023-01-13T12:36:23.353Z,17.8323
2023-01-13T12:41:24.291Z,15.10576
2023-01-13T12:46:25.213Z,13.79271
2023-01-13T12:51:26.252Z,12.92041
2023-01-13T12:56:27.182Z,12.85528
2023-01-13T13:01:28.247Z,12.55119
2023-01-13T13:06:29.256Z,14.93077
2023-01-13T13:11:30.169Z,17.83881
2023-01-13T13:16:31.137Z,19.88871
2023-01-13T13:21:32.165Z,21.5546
2023-01-13T13:26:33.090Z,22.36612
2023-01-13T13:31:34.124Z,23.36458
2023-01-13T13:36:35.035Z,23.89218
2023-01-13T13:41:35.988Z,24.43699
2023-01-13T13:46:36.929Z,24.73634
2023-01-13T13:51:39.290Z,24.95089
2023-01-13T13:56:41.252Z,25.22368
2023-01-13T14:01:42.271Z,25.31741
2023-01-13T14:06:43.285Z,25.52375
2023-01-13T14:11:44.183Z,25.6297
2023-01-13T14:16:45.099Z,25.90892
2023-01-13T14:21:46.043Z,26.33045
2023-01-13T14:26:46.985Z,26.49789
2023-01-13T14:31:47.940Z,26.74277
2023-01-13T14:36:48.844Z,26.77829
2023-01-13T14:41:49.805Z,26.77842
2023-01-13T14:46:50.730Z,26.94694
2023-01-13T14:51:51.728Z,27.22702
2023-01-13T14:56:57.658Z,27.36426
2023-01-13T15:01:58.762Z,27.51608
2023-01-13T15:06:59.754Z,27.64292
2023-01-13T15:12:00.663Z,27.65262
2023-01-13T15:17:01.951Z,27.64456
2023-01-13T15:22:02.928Z,27.51099
2023-01-13T15:27:03.875Z,27.52042
2023-01-13T15:32:04.777Z,27.4709
2023-01-13T15:37:05.797Z,27.53182
2023-01-13T15:42:06.729Z,27.48035
2023-01-13T15:47:07.680Z,27.61768
2023-01-13T15:52:08.627Z,27.80297
2023-01-13T15:57:09.528Z,27.94397
2023-01-13T16:02:10.487Z,28.12606
2023-01-13T16:07:11.398Z,28.41996
2023-01-13T16:12:12.419Z,28.6833
2023-01-13T16:17:13.364Z,28.69825
2023-01-13T16:22:14.570Z,28.74906
2023-01-13T16:27:15.660Z,28.98393
2023-01-13T16:32:16.943Z,29.10565
2023-01-13T16:37:17.987Z,29.36295
2023-01-13T16:42:19.042Z,29.62601
2023-01-13T16:47:20.004Z,30.34011
2023-01-13T16:52:20.937Z,31.11373
2023-01-13T16:57:21.950Z,32.04701
2023-01-13T17:02:22.906Z,32.69734
2023-01-13T17:07:23.897Z,32.77423
2023-01-13T17:12:24.860Z,32.84382
2023-01-13T17:17:25.790Z,32.774
2023-01-13T17:22:26.748Z,32.91489
2023-01-13T17:27:27.893Z,32.85036
2023-01-13T17:32:28.870Z,33.03745
2023-01-13T17:37:29.785Z,33.24584
2023-01-13T17:42:30.784Z,33.03071
2023-01-13T17:47:31.809Z,32.97734
2023-01-13T17:52:32.760Z,32.7077
2023-01-13T17:57:33.736Z,32.71449
2023-01-13T18:02:34.750Z,32.70362
2023-01-13T18:07:35.716Z,32.63987
2023-01-13T18:12:36.602Z,32.53232
2023-01-13T18:17:37.734Z,32.58053
2023-01-13T18:22:38.696Z,32.7382
2023-01-13T18:27:39.788Z,32.82578
2023-01-13T18:32:41.083Z,32.85452
2023-01-13T18:37:42.138Z,32.89583
2023-01-13T18:42:43.214Z,33.02035
2023-01-13T18:47:44.264Z,33.14878
2023-01-13T18:52:45.263Z,33.11454
2023-01-13T18:57:46.172Z,33.08423
2023-01-13T19:02:47.249Z,32.8904
2023-01-13T19:07:48.240Z,32.93227
2023-01-13T19:12:49.207Z,32.84489
2023-01-13T19:17:50.293Z,32.83246
2023-01-13T19:22:51.230Z,32.6336
2023-01-13T19:27:52.172Z,32.55872
2023-01-13T19:32:53.124Z,32.44684
2023-01-13T19:37:54.013Z,32.31673
2023-01-13T19:42:54.949Z,32.22343
2023-01-13T19:47:55.897Z,32.22367
2023-01-13T19:52:56.819Z,32.0446
2023-01-13T19:57:57.708Z,32.10399
2023-01-13T20:02:58.695Z,32.07447
2023-01-13T20:07:59.651Z,32.09244
2023-01-13T20:13:00.692Z,32.05718
2023-01-13T20:18:01.642Z,32.0453
2023-01-13T20:23:02.576Z,32.12247
2023-01-13T20:28:03.481Z,32.19423
2023-01-13T20:33:04.469Z,32.23379
2023-01-13T20:38:05.426Z,32.25793
2023-01-13T20:43:06.364Z,32.28808
2023-01-13T20:48:08.011Z,32.27623
2023-01-13T20:53:08.967Z,32.24016
2023-01-13T20:58:10.090Z,32.18216
2023-01-13T21:03:11.027Z,32.084
2023-01-13T21:08:11.929Z,32.07332
2023-01-13T21:13:13.250Z,32.08456
2023-01-13T21:18:14.192Z,31.97966
2023-01-13T21:23:15.194Z,32.09628
2023-01-13T21:28:16.116Z,32.07898
2023-01-13T21:33:17.076Z,32.4682
2023-01-13T21:38:18.020Z,32.59813
2023-01-13T21:43:18.947Z,32.65682
2023-01-13T21:48:19.916Z,32.58049
2023-01-13T21:53:20.843Z,32.62658
2023-01-13T21:58:21.774Z,32.56861
2023-01-13T22:03:22.750Z,32.47245
2023-01-13T22:08:23.699Z,32.46
2023-01-13T22:13:24.672Z,32.38183
2023-01-13T22:18:25.608Z,32.41139
2023-01-13T22:23:26.526Z,32.56485
2023-01-13T22:28:27.432Z,32.6062
2023-01-13T22:33:28.420Z,32.68265
2023-01-13T22:38:29.328Z,32.67599
2023-01-13T22:43:30.269Z,32.68224
2023-01-13T22:48:31.193Z,32.83518
2023-01-13T22:53:32.269Z,32.92312
2023-01-13T22:58:33.193Z,33.04604
2023-01-13T23:03:34.201Z,33.02319
2023-01-13T23:08:35.164Z,33.12407
2023-01-13T23:13:36.086Z,33.25345
2023-01-13T23:18:36.985Z,33.34695
2023-01-13T23:23:37.938Z,33.38819
2023-01-13T23:28:38.909Z,33.45136
2023-01-13T23:33:40.123Z,33.64933
2023-01-13T23:38:41.341Z,34.0107
2023-01-13T23:43:42.322Z,34.34412
2023-01-13T23:48:43.287Z,34.37928
2023-01-13T23:53:44.237Z,34.46681
